Weather observations for the past three days for
Detroit, Detroit Metropolitan Wayne County Airport
Imperial (Metric)
Date Time (edt) Wind (mph) Vis. (mi.) Weather Sky Cond. Temperature (ºF) Relative Humidity Wind Chill (°F) Heat Index (°F) Pressure Precipitation (in)
Air Dwpt 6 hour altimeter (in) sea level (mb) 1 hr 3 hr 6 hr
Max. Min.
02 15:53 NW 7 10.00 Overcast FEW050 OVC075 48 21.9 36% 45 30.03 1017.2
02 14:53 NW 8 G 17 10.00 Overcast FEW040 OVC070 48 23 37% 45 30.04 1017.8
02 13:53 W 13 10.00 Overcast FEW050 OVC070 46 23 48 37.9 40% 41 30.05 1018.2
02 12:53 W 7 10.00 Overcast FEW040 OVC060 46 23 40% 43 30.06 1018.3
02 11:53 N 8 10.00 Mostly Cloudy FEW045 BKN060 43 24.1 47% 39 30.07 1018.6
02 10:53 NW 6 10.00 Mostly Cloudy FEW035 BKN065 43 28 56% 40 30.06 1018.2
02 09:53 W 7 10.00 Mostly Cloudy FEW025 BKN040 42.1 30 62% 38 30.06 1018.2
02 08:53 Vrbl 5 10.00 Partly Cloudy FEW015 FEW025 SCT080 41 33.1 73% 38 30.07 1018.5
02 07:53 NW 3 10.00 Mostly Cloudy FEW055 BKN080 37.9 32 37.9 36 79% 30.06 1018.3 0.01
02 06:53 Calm 8.00 Mostly Cloudy FEW035 BKN080 36 32 86% 30.05 1018.0
02 05:53 NW 3 10.00 Mostly Cloudy SCT030 BKN045 BKN085 36 32 86% 30.04 1017.7
02 04:53 Calm 9.00 Overcast FEW020 SCT060 OVC080 37 32 82% 30.03 1017.4 0.01
02 03:53 Calm 9.00 Light Snow BKN040 OVC055 37 33.1 86% 30.03 1017.4
02 02:53 NE 3 10.00 Light Rain SCT040 OVC050 37 33.1 86% 30.03 1017.2 0.01
02 01:53 NE 5 9.00 Light Rain Snow FEW028 OVC040 37 33.1 46 37 86% 34 30.04 1017.7 0.04 0.04
02 00:53 NE 7 9.00 Light Rain Snow FEW025 OVC035 39 32 76% 35 30.04 1017.5
01 23:53 E 7 10.00 Overcast SCT025 BKN030 OVC060 42.1 35.1 76% 38 30.02 1016.8
01 22:53 SE 6 10.00 Overcast BKN040 OVC060 42.1 35.1 76% 39 30.01 1016.6
01 21:53 NW 9 9.00 Light Rain FEW035 SCT045 OVC070 45 30 56% 41 30 1016.2
01 20:53 NW 9 10.00 Overcast FEW050 BKN060 OVC080 45 30 56% 41 29.99 1015.7
01 19:53 N 10 10.00 Overcast FEW050 BKN070 OVC090 45 30.9 51.1 44.1 58% 40 29.97 1015.2
01 18:53 W 9 G 17 10.00 Overcast SCT050 BKN070 OVC090 48 30 50% 44 29.96 1014.8
01 17:53 NW 9 10.00 Overcast FEW050 OVC065 48.9 28.9 46% 45 29.95 1014.5
01 16:53 NW 8 10.00 Overcast FEW050 BKN060 OVC090 48 28.9 48% 45 29.94 1014.0
01 15:53 Vrbl 3 10.00 Overcast BKN070 OVC090 48.9 26.1 41% 29.93 1013.9
01 14:53 N 8 10.00 Overcast FEW040 SCT055 OVC080 50 28 43% 47 29.93 1013.8
01 13:53 Vrbl 6 10.00 Overcast SCT040 OVC055 46.9 33.1 48.9 41 59% 45 29.93 1013.7 0.03
01 12:53 N 7 10.00 Overcast FEW035 BKN070 OVC150 48 35.1 61% 45 29.93 1013.7
01 11:53 N 7 10.00 Overcast SCT040 BKN050 OVC060 46 37.9 73% 43 29.93 1013.8 0.03
01 10:53 NW 10 10.00 Light Rain SCT020 BKN026 OVC032 44.1 37 76% 39 29.93 1013.7
01 09:53 NW 7 10.00 Overcast SCT012 BKN035 OVC050 45 37 74% 42 29.93 1013.6
01 08:53 W 8 10.00 Overcast SCT012 BKN030 OVC050 43 36 76% 39 29.93 1013.9
01 07:53 W 5 9.00 Overcast FEW007 OVC060 42.1 37 45 41 82% 40 29.92 1013.5
01 06:53 S 8 10.00 Overcast FEW011 OVC060 41 37 86% 36 29.92 1013.5
01 05:53 Calm 9.00 Light Rain SCT035 OVC060 42.1 36 79% 29.91 1013.0
01 04:53 S 6 9.00 Light Rain BKN033 OVC060 42.1 36 79% 39 29.92 1013.5
01 03:53 W 8 8.00 Light Rain BKN033 OVC060 43 37 80% 39 29.93 1013.7
01 02:53 SE 9 10.00 Overcast BKN043 OVC070 43 36 76% 38 29.93 1013.8
01 01:53 S 7 9.00 Overcast SCT032 BKN045 OVC080 45 33.1 51.1 45 63% 42 29.94 1014.0
01 00:53 W 7 8.00 Light Rain BKN028 OVC050 46 30.9 56% 43 29.96 1014.7
30 23:53 W 13 10.00 Overcast FEW040 OVC070 48.9 27 43% 44 29.96 1014.6
30 22:53 W 12 10.00 Overcast FEW060 OVC080 48.9 27 43% 45 29.96 1014.8
30 21:53 W 9 10.00 Mostly Cloudy FEW070 BKN090 50 26.1 39% 47 29.95 1014.4
30 20:53 W 8 10.00 Mostly Cloudy FEW070 BKN100 51.1 26.1 38% 29.94 1014.1
30 19:53 W 9 10.00 Mostly Cloudy FEW065 SCT080 BKN100 51.1 27 57 51.1 39% 29.94 1014.0
30 18:53 W 13 G 22 10.00 Mostly Cloudy BKN070 BKN090 52 26.1 37% 29.94 1014.1
30 17:53 NW 13 10.00 Mostly Cloudy BKN075 53.1 26.1 35% 29.94 1014.0
30 16:53 NW 15 10.00 Mostly Cloudy BKN070 53.1 27 37% 29.94 1014.0
30 15:53 W 13 G 24 10.00 Mostly Cloudy FEW055 BKN075 55.9 28.9 36% 29.94 1014.0
30 14:53 NW 16 G 24 10.00 Mostly Cloudy FEW055 BKN080 55 28.9 37% 29.95 1014.4
30 13:53 W 17 G 23 10.00 Mostly Cloudy FEW045 BKN065 BKN080 55 30 55 42.1 38% 29.95 1014.3
30 12:53 W 14 G 23 10.00 Mostly Cloudy FEW045 BKN060 BKN080 54 33.1 45% 29.96 1014.6
30 11:53 NW 12 10.00 Mostly Cloudy BKN040 BKN080 50 32 50% 46 29.97 1015.0
30 10:53 W 9 10.00 Mostly Cloudy FEW035 BKN080 51.1 34 52% 29.96 1014.7
30 09:53 NW 9 10.00 Mostly Cloudy SCT025 SCT045 BKN090 48 36 63% 44 29.96 1014.7
30 08:53 NW 10 10.00 Mostly Cloudy SCT016 BKN040 BKN090 44.1 37.9 79% 39 29.95 1014.5
30 07:53 NW 8 10.00 Overcast FEW008 BKN042 OVC075 42.1 37.9 42.1 41 85% 38 29.95 1014.5
30 06:53 NW 8 9.00 Overcast SCT023 OVC045 41 37.9 89% 36 29.94 1014.2
30 05:53 NW 7 9.00 Light Rain BKN033 OVC055 41 37 86% 37 29.93 1013.9
30 04:53 NW 7 9.00 Overcast SCT038 OVC065 41 37.9 89% 37 29.92 1013.6
30 03:53 NW 7 8.00 Overcast SCT025 OVC050 42.1 39 89% 38 29.91 1013.1
30 02:53 N 6 6.00 Light Rain Fog/Mist BKN028 OVC050 42.1 37.9 85% 39 29.91 1013.2
30 01:53 N 6 6.00 Light Rain Fog/Mist SCT008 OVC032 42.1 37.9 48.9 42.1 85% 39 29.92 1013.4 0.03 0.09
30 00:53 N 6 6.00 Light Rain Fog/Mist SCT008 OVC032 43 39 86% 40 29.92 1013.5 0.01
29 23:53 N 6 8.00 Light Rain FEW015 OVC035 44.1 37.9 79% 41 29.92 1013.3
29 22:53 N 9 9.00 Light Rain FEW013 SCT020 OVC030 46 41 83% 42 29.91 1013.2 0.02 0.05
29 21:53 Calm 7.00 Light Rain FEW013 BKN020 OVC030 46 43 89% 29.9 1012.8 0.03
29 20:53 E 6 3.00 Light Rain Fog/Mist OVC020 46.9 43 86% 45 29.87 1011.7
29 19:53 SE 5 10.00 Overcast FEW017 OVC030 48.9 44.1 50 48.9 83% 48 29.85 1011.1 0.01
29 18:53 E 3 10.00 Overcast FEW017 OVC040 50 44.1 80% 29.85 1011.0
29 17:53 Calm 10.00 Overcast FEW015 OVC045 50 44.1 80% 29.84 1010.8
29 16:53 N 3 10.00 Overcast FEW015 OVC040 48.9 44.1 83% 29.85 1010.9 0.01
Date Time (edt) Wind (mph) Vis. (mi.) Weather Sky Cond. Air Dwpt Max. Min. Relative Humidity Wind Chill (°F) Heat Index (°F) altimeter (in) sea level (mb) 1 hr 3 hr 6 hr
6 hour
Temperature (ºF) Pressure Precipitation (in)